Hesperides — EBBW — position and weather

sailwx.info

Track history (hours):
 
Tides and Currents Weather Stations Pressure Air Temp Water Temp Dewpoint Dewpoint Depression Visibility Wind Speed Wind Dir Waves Ship Positions

Oceanographic research ship Hesperides (Spain)

Detailed information on ship capabilities available from University of Delaware's Ocean Information Center.

Last reported at 2017-Nov-16 09:49 UTC. Time now 2017-Nov-22 07:23 UTC.
Position N 37°29' W 000°55'.

Length 82 m; draft 5.5 m.

Type: Ship. MMSI: 224886000.

Date/timePositionNaut miles runAvg speedWind from/ knotsBaromVisibWave heightAir tempDewpointWater temp
2017-Nov-16 09:49N 37°29' W 000°55'1 1.1
2017-Nov-16 08:49N 37°29' W 000°53'2 4.9
2017-Nov-16 08:26N 37°29' W 000°56'0 0.9
2017-Nov-16 07:59N 37°29' W 000°56'11 2.4
2017-Nov-16 03:32N 37°19' W 000°53'1 7.2
2017-Nov-16 03:24N 37°19' W 000°55'11 1.3
2017-Nov-15 19:00N 37°29' W 000°55'1 0.2
2017-Nov-15 16:00N 37°29' W 000°55'1 1.9
2017-Nov-15 15:13N 37°28' W 000°55'1 0.1
2017-Nov-15 09:36N 37°28' W 000°54'0 1.8
2017-Nov-15 09:30N 37°28' W 000°54'1 1.0
2017-Nov-15 08:54N 37°28' W 000°55'0 1.1
2017-Nov-15 08:30N 37°28' W 000°54'  
2017-Nov-07 12:35N 37°25' W 000°49'113.1
2017-Nov-07 12:31N 37°26' W 000°48'2 4.4
2017-Nov-07 12:00N 37°24' W 000°47'5 5.9
2017-Nov-07 11:09N 37°25' W 000°53'1 7.5
2017-Nov-07 11:00N 37°25' W 000°52'3 4.2
2017-Nov-07 10:21N 37°23' W 000°51'  
Track history (hours):
 
Tides and Currents Weather Stations Pressure Air Temp Water Temp Dewpoint Dewpoint Depression Visibility Wind Speed Wind Dir Waves Ship Positions

Oceanographic research ship Hesperides (Spain)

Detailed information on ship capabilities available from University of Delaware's Ocean Information Center.

Last reported at 2017-Nov-16 09:49 UTC. Time now 2017-Nov-22 07:23 UTC.
Position N 37°29' W 000°55'.

Length 82 m; draft 5.5 m.

Type: Ship. MMSI: 224886000.

Date/timePositionNaut miles runAvg speedWind from/ knotsBaromVisibWave heightAir tempDewpointWater temp
2017-Nov-16 09:49N 37°29' W 000°55'1 1.1
2017-Nov-16 08:49N 37°29' W 000°53'2 4.9
2017-Nov-16 08:26N 37°29' W 000°56'0 0.9
2017-Nov-16 07:59N 37°29' W 000°56'11 2.4
2017-Nov-16 03:32N 37°19' W 000°53'1 7.2
2017-Nov-16 03:24N 37°19' W 000°55'11 1.3
2017-Nov-15 19:00N 37°29' W 000°55'1 0.2
2017-Nov-15 16:00N 37°29' W 000°55'1 1.9
2017-Nov-15 15:13N 37°28' W 000°55'1 0.1
2017-Nov-15 09:36N 37°28' W 000°54'0 1.8
2017-Nov-15 09:30N 37°28' W 000°54'1 1.0
2017-Nov-15 08:54N 37°28' W 000°55'0 1.1
2017-Nov-15 08:30N 37°28' W 000°54'  
2017-Nov-07 12:35N 37°25' W 000°49'113.1
2017-Nov-07 12:31N 37°26' W 000°48'2 4.4
2017-Nov-07 12:00N 37°24' W 000°47'5 5.9
2017-Nov-07 11:09N 37°25' W 000°53'1 7.5
2017-Nov-07 11:00N 37°25' W 000°52'3 4.2
2017-Nov-07 10:21N 37°23' W 000°51'  

Dump ship's entire track history